createdAt,value
2022-12-17T00:01:08.108Z,99576.38
2022-12-17T00:03:53.681Z,99562.88
2022-12-17T00:06:44.277Z,99567.59
2022-12-17T00:09:29.837Z,99565.09
2022-12-17T00:12:15.550Z,99573.66
2022-12-17T00:15:01.044Z,99576.78
2022-12-17T00:17:46.789Z,99565.97
2022-12-17T00:20:32.268Z,99588.03
2022-12-17T00:23:19.986Z,99580.94
2022-12-17T00:26:09.380Z,99584.66
2022-12-17T00:28:55.371Z,99572.97
2022-12-17T00:31:41.740Z,99574.84
2022-12-17T00:34:27.399Z,99566.31
2022-12-17T00:37:12.940Z,99567.97
2022-12-17T00:40:00.011Z,99563.72
2022-12-17T00:43:00.500Z,99566.84
2022-12-17T00:45:46.078Z,99565.16
2022-12-17T00:48:31.343Z,99561.59
2022-12-17T00:51:16.781Z,99566.22
2022-12-17T00:54:02.356Z,99551.22
2022-12-17T00:56:49.404Z,99541.56
2022-12-17T00:59:34.966Z,99544.72
2022-12-17T01:02:20.821Z,99544.25
2022-12-17T01:05:06.226Z,99545.50
2022-12-17T01:07:52.567Z,99559.41
2022-12-17T01:10:38.088Z,99566.63
2022-12-17T01:13:25.165Z,99562.78
2022-12-17T01:16:10.563Z,99548.72
2022-12-17T01:18:56.297Z,99538.91
2022-12-17T01:21:42.072Z,99537.22
2022-12-17T01:24:27.850Z,99538.78
2022-12-17T01:27:13.333Z,99539.25
2022-12-17T01:30:00.265Z,99538.16
2022-12-17T01:32:45.701Z,99529.50
2022-12-17T01:35:31.214Z,99525.53
2022-12-17T01:38:16.558Z,99528.56
2022-12-17T01:41:02.401Z,99532.00
2022-12-17T01:43:51.868Z,99509.06
2022-12-17T01:46:40.130Z,99510.88
2022-12-17T01:49:28.047Z,99513.09
2022-12-17T01:52:14.205Z,99509.34
2022-12-17T01:55:00.122Z,99508.56
2022-12-17T01:57:45.800Z,99519.69
2022-12-17T02:00:32.984Z,99518.72
2022-12-17T02:03:20.317Z,99513.09
2022-12-17T02:06:18.466Z,99499.81
2022-12-17T02:09:11.715Z,99503.41
2022-12-17T02:12:09.696Z,99513.97
2022-12-17T02:15:03.111Z,99510.59
2022-12-17T02:17:54.906Z,99506.97
2022-12-17T02:20:48.711Z,99516.53
2022-12-17T02:23:52.900Z,99520.38
2022-12-17T02:26:49.178Z,99502.34
2022-12-17T02:29:35.260Z,99512.38
2022-12-17T02:32:21.687Z,99517.66
2022-12-17T02:35:07.628Z,99533.50
2022-12-17T02:37:52.900Z,99524.38
2022-12-17T02:40:40.977Z,99527.19
2022-12-17T02:43:30.223Z,99526.31
2022-12-17T02:46:15.772Z,99522.94
2022-12-17T02:49:01.772Z,99521.47
2022-12-17T02:51:47.651Z,99532.91
2022-12-17T02:54:32.996Z,99527.09
2022-12-17T02:57:30.569Z,99534.63
2022-12-17T03:00:17.476Z,99514.38
2022-12-17T03:03:02.977Z,99532.28
2022-12-17T03:05:48.351Z,99527.53
2022-12-17T03:08:34.443Z,99525.28
2022-12-17T03:11:19.869Z,99525.16
2022-12-17T03:14:05.250Z,99514.69
2022-12-17T03:17:07.142Z,99519.44
2022-12-17T03:19:52.608Z,99492.28
2022-12-17T03:22:37.908Z,99517.19
2022-12-17T03:25:24.023Z,99499.06
2022-12-17T03:28:09.485Z,99503.91
2022-12-17T03:30:55.142Z,99491.41
2022-12-17T03:33:42.242Z,99499.38
2022-12-17T03:36:27.440Z,99504.56
2022-12-17T03:39:13.046Z,99482.59
2022-12-17T03:41:58.437Z,99511.41
2022-12-17T03:44:44.055Z,99453.38
2022-12-17T03:47:29.503Z,99511.56
2022-12-17T03:50:16.408Z,99480.75
2022-12-17T03:53:02.050Z,99476.41
2022-12-17T03:55:47.575Z,99482.47
2022-12-17T03:58:33.670Z,99502.16
2022-12-17T04:01:19.581Z,99473.88
2022-12-17T04:04:05.165Z,99468.41
2022-12-17T04:06:52.352Z,99461.59
2022-12-17T04:09:37.707Z,99467.00
2022-12-17T04:12:23.296Z,99473.31
2022-12-17T04:15:08.771Z,99453.47
2022-12-17T04:17:54.303Z,99464.38
2022-12-17T04:20:54.327Z,99463.03
2022-12-17T04:23:41.123Z,99455.97
2022-12-17T04:26:26.440Z,99455.88
2022-12-17T04:29:11.867Z,99425.94
2022-12-17T04:31:57.188Z,99440.66
2022-12-17T04:34:42.677Z,99413.84
2022-12-17T04:37:28.162Z,99445.47
2022-12-17T04:40:15.034Z,99420.53
2022-12-17T04:43:00.559Z,99458.59
2022-12-17T04:45:46.389Z,99415.06
2022-12-17T04:48:32.069Z,99437.88
2022-12-17T04:51:17.429Z,99424.13
2022-12-17T04:54:02.969Z,99435.25
2022-12-17T04:56:50.004Z,99426.81
2022-12-17T04:59:35.351Z,99439.44
2022-12-17T05:02:20.750Z,99417.94
2022-12-17T05:05:06.502Z,99442.78
2022-12-17T05:07:52.102Z,99436.13
2022-12-17T05:10:37.625Z,99456.97
2022-12-17T05:13:24.597Z,99453.00
2022-12-17T05:16:14.683Z,99455.13
2022-12-17T05:19:00.344Z,99462.69
2022-12-17T05:21:45.747Z,99467.75
2022-12-17T05:24:31.123Z,99470.06
2022-12-17T05:27:16.732Z,99464.88
2022-12-17T05:30:03.720Z,99465.31
2022-12-17T05:32:49.117Z,99470.56
2022-12-17T05:35:34.907Z,99480.56
2022-12-17T05:38:22.775Z,99469.09
2022-12-17T05:41:08.671Z,99481.50
2022-12-17T05:43:54.129Z,99458.09
2022-12-17T05:46:41.033Z,99469.38
2022-12-17T05:49:27.116Z,99506.75
2022-12-17T05:52:12.342Z,99490.78
2022-12-17T05:55:00.042Z,99478.19
2022-12-17T05:57:46.010Z,99505.41
2022-12-17T06:00:32.449Z,99484.91
2022-12-17T06:03:21.606Z,99494.97
2022-12-17T06:06:12.868Z,99485.00
2022-12-17T06:08:58.945Z,99488.94
2022-12-17T06:11:44.545Z,99489.09
2022-12-17T06:14:30.204Z,99523.94
2022-12-17T06:17:15.783Z,99515.41
2022-12-17T06:20:08.040Z,99569.22
2022-12-17T06:22:52.614Z,99524.88
2022-12-17T06:25:37.898Z,99583.81
2022-12-17T06:28:23.913Z,99547.47
2022-12-17T06:31:10.047Z,99574.66
2022-12-17T06:33:56.448Z,99549.69
2022-12-17T06:36:45.994Z,99576.00
2022-12-17T06:39:31.585Z,99549.41
2022-12-17T06:42:17.130Z,99576.38
2022-12-17T06:45:03.073Z,99549.19
2022-12-17T06:47:48.568Z,99577.78
2022-12-17T06:50:34.139Z,99525.84
2022-12-17T06:53:23.437Z,99569.63
2022-12-17T06:56:09.572Z,99548.78
2022-12-17T06:58:55.048Z,99567.22
2022-12-17T07:01:40.733Z,99548.22
2022-12-17T07:04:26.530Z,99534.41
2022-12-17T07:07:11.829Z,99533.06
2022-12-17T07:10:14.077Z,99512.50
2022-12-17T07:13:00.940Z,99517.00
2022-12-17T07:15:46.504Z,99520.31
2022-12-17T07:18:32.039Z,99511.06
2022-12-17T07:21:17.680Z,99498.94
2022-12-17T07:24:03.830Z,99551.03
2022-12-17T07:26:51.606Z,99508.16
2022-12-17T07:29:37.075Z,99526.66
2022-12-17T07:32:23.314Z,99557.03
2022-12-17T07:35:09.596Z,99532.94
2022-12-17T07:37:55.232Z,99563.34
2022-12-17T07:40:40.923Z,99518.31
2022-12-17T07:43:30.964Z,99549.03
2022-12-17T07:46:16.780Z,99565.47
2022-12-17T07:49:03.178Z,99576.16
2022-12-17T07:51:48.769Z,99591.28
2022-12-17T07:54:34.187Z,99572.41
2022-12-17T07:57:19.829Z,99600.56
2022-12-17T08:00:07.023Z,99590.09
2022-12-17T08:02:52.683Z,99609.34
2022-12-17T08:05:38.299Z,99622.28
2022-12-17T08:08:26.991Z,99608.22
2022-12-17T08:11:12.486Z,99624.44
2022-12-17T08:13:58.715Z,99618.69
2022-12-17T08:16:45.756Z,99622.44
2022-12-17T08:19:31.560Z,99621.97
2022-12-17T08:22:17.065Z,99626.81
2022-12-17T08:25:03.047Z,99633.66
2022-12-17T08:27:49.472Z,99640.66
2022-12-17T08:30:35.004Z,99655.53
2022-12-17T08:33:25.508Z,99642.66
2022-12-17T08:36:11.811Z,99627.16
2022-12-17T08:38:57.257Z,99631.91
2022-12-17T08:41:42.623Z,99650.81
2022-12-17T08:44:28.183Z,99633.25
2022-12-17T08:47:14.261Z,99617.50
2022-12-17T08:50:01.354Z,99629.66
2022-12-17T08:52:46.970Z,99608.91
2022-12-17T08:55:32.406Z,99601.94
2022-12-17T08:58:18.217Z,99589.22
2022-12-17T09:01:04.370Z,99599.69
2022-12-17T09:03:55.136Z,99603.84
2022-12-17T09:06:42.161Z,99601.59
2022-12-17T09:09:27.590Z,99594.03
2022-12-17T09:12:13.026Z,99596.97
2022-12-17T09:14:58.715Z,99596.19
2022-12-17T09:17:44.202Z,99612.63
2022-12-17T09:20:29.765Z,99614.00
2022-12-17T09:23:17.070Z,99606.09
2022-12-17T09:26:02.651Z,99621.44
2022-12-17T09:28:48.177Z,99617.38
2022-12-17T09:31:37.248Z,99627.75
2022-12-17T09:34:23.229Z,99635.97
2022-12-17T09:37:08.994Z,99648.69
2022-12-17T09:39:56.654Z,99639.56
2022-12-17T09:42:52.526Z,99648.03
2022-12-17T09:45:46.419Z,99639.38
2022-12-17T09:48:40.455Z,99611.53
2022-12-17T09:51:39.693Z,99609.59
2022-12-17T09:54:34.436Z,99620.88
2022-12-17T09:57:21.815Z,99603.75
2022-12-17T10:00:07.299Z,99599.91
2022-12-17T10:02:53.502Z,99574.00
2022-12-17T10:05:44.458Z,99567.69
2022-12-17T10:08:33.590Z,99561.25
2022-12-17T10:11:34.413Z,99560.53
2022-12-17T10:14:23.274Z,99568.88
2022-12-17T10:17:12.013Z,99547.44
2022-12-17T10:20:00.402Z,99544.53
2022-12-17T10:22:46.313Z,99547.13
2022-12-17T10:25:36.200Z,99566.13
2022-12-17T10:28:25.236Z,99549.81
2022-12-17T10:31:12.192Z,99546.66
2022-12-17T10:33:59.456Z,99554.66
2022-12-17T10:36:46.820Z,99538.66
2022-12-17T10:39:35.277Z,99539.63
2022-12-17T10:42:21.396Z,99551.41
2022-12-17T10:45:06.887Z,99559.94
2022-12-17T10:47:53.850Z,99557.78
2022-12-17T10:50:41.537Z,99554.38
2022-12-17T10:53:37.565Z,99559.59
2022-12-17T10:56:24.158Z,99541.72
2022-12-17T10:59:11.859Z,99532.28
2022-12-17T11:01:58.890Z,99531.28
2022-12-17T11:04:48.415Z,99525.41
2022-12-17T11:07:37.868Z,99511.06
2022-12-17T11:10:31.875Z,99508.47
2022-12-17T11:13:21.609Z,99502.53
2022-12-17T11:16:09.259Z,99524.47
2022-12-17T11:19:03.780Z,99540.28
2022-12-17T11:21:54.980Z,99539.34
2022-12-17T11:24:46.392Z,99537.66
2022-12-17T11:27:36.922Z,99531.19
2022-12-17T11:30:31.099Z,99547.44
2022-12-17T11:33:28.342Z,99561.81
2022-12-17T11:36:24.274Z,99578.16
2022-12-17T11:39:23.497Z,99596.91
2022-12-17T11:42:18.245Z,99602.16
2022-12-17T11:45:14.368Z,99597.75
2022-12-17T11:48:07.316Z,99602.16
2022-12-17T11:51:02.233Z,99618.84
2022-12-17T11:54:05.366Z,99638.22
2022-12-17T11:56:57.420Z,99661.38
2022-12-17T11:59:52.891Z,99663.66
2022-12-17T12:02:57.878Z,99666.16
2022-12-17T12:05:56.729Z,99681.94
2022-12-17T12:08:45.335Z,99670.44
2022-12-17T12:11:44.631Z,99660.59
2022-12-17T12:14:47.011Z,99666.63
2022-12-17T12:17:50.116Z,99676.22
2022-12-17T12:20:52.732Z,99661.28
2022-12-17T12:23:49.848Z,99658.09
2022-12-17T12:26:39.756Z,99649.91
2022-12-17T12:29:38.731Z,99636.78
2022-12-17T12:32:31.392Z,99646.66
2022-12-17T12:35:20.390Z,99627.09
2022-12-17T12:38:05.842Z,99608.22
2022-12-17T12:40:57.340Z,99608.22
2022-12-17T12:44:02.320Z,99605.66
2022-12-17T12:46:56.282Z,99600.34
2022-12-17T12:49:47.577Z,99580.91
2022-12-17T12:52:38.553Z,99582.28
2022-12-17T12:55:39.648Z,99574.66
2022-12-17T12:58:43.000Z,99569.69
2022-12-17T13:01:29.156Z,99576.84
2022-12-17T13:04:21.805Z,99586.25
2022-12-17T13:06:54.217Z,99579.91
2022-12-17T13:09:47.895Z,99563.91
2022-12-17T13:12:27.987Z,99562.50
2022-12-17T13:15:03.906Z,99567.66
2022-12-17T13:17:36.721Z,99562.22
2022-12-17T13:20:25.382Z,99568.84
2022-12-17T13:22:55.401Z,99581.50
2022-12-17T13:25:24.644Z,99584.50
2022-12-17T13:27:52.752Z,99592.91
2022-12-17T13:30:25.006Z,99585.91
2022-12-17T13:33:05.005Z,99578.06
2022-12-17T13:35:42.807Z,99588.78
2022-12-17T13:38:21.695Z,99591.66
2022-12-17T13:41:09.350Z,99605.44
2022-12-17T13:43:43.472Z,99611.22
2022-12-17T13:46:20.650Z,99619.94
2022-12-17T13:48:59.215Z,99606.53
2022-12-17T13:51:30.536Z,99610.69
2022-12-17T13:54:01.674Z,99620.81
2022-12-17T13:56:33.030Z,99618.81
2022-12-17T13:59:08.734Z,99625.38
2022-12-17T14:01:46.666Z,99631.72
2022-12-17T14:04:22.548Z,99638.06
2022-12-17T14:06:53.075Z,99639.50
2022-12-17T14:09:23.769Z,99637.81
2022-12-17T14:12:09.634Z,99642.66
2022-12-17T14:14:40.444Z,99638.66
2022-12-17T14:17:17.910Z,99640.03
2022-12-17T14:19:46.209Z,99648.28
2022-12-17T14:22:20.850Z,99650.91
2022-12-17T14:24:49.157Z,99652.66
2022-12-17T14:27:26.057Z,99661.31
2022-12-17T14:29:54.465Z,99652.13
2022-12-17T14:32:27.295Z,99645.22
2022-12-17T14:35:00.455Z,99632.59
2022-12-17T14:37:31.868Z,99636.28
2022-12-17T14:40:04.266Z,99642.19
2022-12-17T14:42:38.431Z,99653.41
2022-12-17T14:45:22.038Z,99647.84
2022-12-17T14:47:55.559Z,99648.88
2022-12-17T14:50:33.359Z,99661.66
2022-12-17T14:53:07.440Z,99665.06
2022-12-17T14:55:38.514Z,99671.16
2022-12-17T14:58:25.001Z,99675.16
2022-12-17T15:00:57.123Z,99682.81
2022-12-17T15:03:28.276Z,99696.72
2022-12-17T15:05:59.755Z,99698.06
2022-12-17T15:08:32.789Z,99703.38
2022-12-17T15:11:00.798Z,99715.25
2022-12-17T15:13:28.969Z,99713.63
2022-12-17T15:15:57.701Z,99721.50
2022-12-17T15:18:26.076Z,99722.66
2022-12-17T15:20:54.789Z,99728.06
2022-12-17T15:23:24.338Z,99735.75
2022-12-17T15:25:56.122Z,99757.38
2022-12-17T15:28:28.380Z,99771.72
2022-12-17T15:30:56.863Z,99783.97
2022-12-17T15:33:25.306Z,99803.38
2022-12-17T15:35:53.519Z,99807.13
2022-12-17T15:38:21.625Z,99825.31
2022-12-17T15:40:49.718Z,99822.50
2022-12-17T15:43:18.275Z,99838.66
2022-12-17T15:45:47.750Z,99832.47
2022-12-17T15:48:17.968Z,99817.94
2022-12-17T15:50:46.125Z,99803.72
2022-12-17T15:53:14.204Z,99796.84
2022-12-17T15:55:43.001Z,99763.09
2022-12-17T15:58:11.773Z,99704.34
2022-12-17T16:00:41.211Z,99660.84
2022-12-17T16:03:09.528Z,99671.44
2022-12-17T16:05:37.775Z,99674.75
2022-12-17T16:08:06.214Z,99655.75
2022-12-17T16:10:34.623Z,99654.63
2022-12-17T16:13:02.700Z,99671.34
2022-12-17T16:15:31.155Z,99723.50
2022-12-17T16:18:01.542Z,99739.91
2022-12-17T16:20:29.938Z,99721.16
2022-12-17T16:22:58.210Z,99716.88
2022-12-17T16:25:26.334Z,99709.44
2022-12-17T16:27:54.574Z,99716.09
2022-12-17T16:30:22.675Z,99723.28
2022-12-17T16:32:50.981Z,99731.22
2022-12-17T16:35:20.602Z,99722.34
2022-12-17T16:37:48.735Z,99717.03
2022-12-17T16:40:16.847Z,99717.19
2022-12-17T16:42:44.869Z,99704.56
2022-12-17T16:45:13.008Z,99693.88
2022-12-17T16:47:41.135Z,99701.25
2022-12-17T16:50:09.558Z,99709.38
2022-12-17T16:52:39.186Z,99724.78
2022-12-17T16:55:07.880Z,99726.28
2022-12-17T16:57:35.992Z,99728.66
2022-12-17T17:00:04.578Z,99737.56
2022-12-17T17:02:34.054Z,99750.13
2022-12-17T17:05:02.738Z,99752.84
2022-12-17T17:07:31.095Z,99754.72
2022-12-17T17:10:00.571Z,99746.59
2022-12-17T17:12:29.519Z,99750.91
2022-12-17T17:14:58.054Z,99747.66
2022-12-17T17:17:55.640Z,99755.47
2022-12-17T17:20:15.384Z,99761.91
2022-12-17T17:22:44.084Z,99762.00
2022-12-17T17:25:13.661Z,99779.84
2022-12-17T17:27:41.738Z,99776.13
2022-12-17T17:30:11.296Z,99784.34
2022-12-17T17:32:39.368Z,99786.28
2022-12-17T17:35:08.672Z,99790.47
2022-12-17T17:37:36.986Z,99797.78
2022-12-17T17:40:05.995Z,99797.31
2022-12-17T17:42:36.409Z,99797.56
2022-12-17T17:45:04.725Z,99789.31
2022-12-17T17:47:33.465Z,99802.63
2022-12-17T17:50:03.831Z,99808.28
2022-12-17T17:52:32.436Z,99802.19
2022-12-17T17:55:00.750Z,99795.97
2022-12-17T17:57:29.183Z,99801.38
2022-12-17T17:59:58.928Z,99813.31
2022-12-17T18:02:27.100Z,99813.88
2022-12-17T18:04:55.519Z,99822.69
2022-12-17T18:07:26.144Z,99810.28
2022-12-17T18:09:55.409Z,99804.84
2022-12-17T18:12:49.749Z,99805.06
2022-12-17T18:15:19.602Z,99822.41
2022-12-17T18:17:51.549Z,99822.88
2022-12-17T18:20:20.147Z,99821.31
2022-12-17T18:22:48.391Z,99821.63
2022-12-17T18:25:17.832Z,99818.13
2022-12-17T18:27:46.310Z,99821.63
2022-12-17T18:30:16.497Z,99826.47
2022-12-17T18:32:46.434Z,99836.50
2022-12-17T18:35:14.503Z,99837.28
2022-12-17T18:37:42.880Z,99848.00
2022-12-17T18:40:11.805Z,99859.34
2022-12-17T18:42:57.284Z,99858.44
2022-12-17T18:45:25.400Z,99864.25
2022-12-17T18:47:54.985Z,99869.53
2022-12-17T18:50:23.143Z,99869.84
2022-12-17T18:52:51.409Z,99869.25
2022-12-17T18:55:19.745Z,99861.50
2022-12-17T18:57:47.890Z,99853.03
2022-12-17T19:00:17.218Z,99844.34
2022-12-17T19:02:45.700Z,99850.22
2022-12-17T19:05:15.832Z,99858.09
2022-12-17T19:07:44.028Z,99857.38
2022-12-17T19:10:12.293Z,99853.50
2022-12-17T19:12:40.585Z,99855.97
2022-12-17T19:15:09.904Z,99864.06
2022-12-17T19:17:37.881Z,99874.31
2022-12-17T19:20:06.777Z,99871.78
2022-12-17T19:22:36.316Z,99878.75
2022-12-17T19:25:04.715Z,99888.44
2022-12-17T19:27:32.944Z,99894.97
2022-12-17T19:30:01.501Z,99921.34
2022-12-17T19:32:29.776Z,99918.53
2022-12-17T19:34:59.432Z,99919.50
2022-12-17T19:37:27.698Z,99928.75
2022-12-17T19:39:57.232Z,99939.56
2022-12-17T19:42:35.157Z,99927.47
2022-12-17T19:45:05.474Z,99926.28
2022-12-17T19:47:33.702Z,99931.84
2022-12-17T19:50:01.763Z,99925.78
2022-12-17T19:52:31.207Z,99940.50
2022-12-17T19:55:00.812Z,99941.16
2022-12-17T19:57:29.001Z,99961.91
2022-12-17T19:59:57.103Z,99975.16
2022-12-17T20:02:31.019Z,99983.28
2022-12-17T20:05:00.929Z,99985.44
2022-12-17T20:07:29.066Z,99963.25
2022-12-17T20:09:57.175Z,99950.00
2022-12-17T20:12:26.815Z,99934.44
2022-12-17T20:14:55.348Z,99937.91
2022-12-17T20:17:24.900Z,99951.31
2022-12-17T20:19:53.931Z,99925.06
2022-12-17T20:22:23.509Z,99886.06
2022-12-17T20:24:53.184Z,99852.34
2022-12-17T20:27:21.275Z,99838.84
2022-12-17T20:29:50.818Z,99880.63
2022-12-17T20:32:21.355Z,99912.19
2022-12-17T20:34:49.558Z,99929.47
2022-12-17T20:37:17.763Z,99942.41
2022-12-17T20:39:45.774Z,99935.59
2022-12-17T20:42:13.956Z,99959.34
2022-12-17T20:44:42.926Z,99960.38
2022-12-17T20:47:12.422Z,99951.78
2022-12-17T20:49:40.970Z,99958.19
2022-12-17T20:52:09.258Z,99967.34
2022-12-17T20:54:37.369Z,99971.31
2022-12-17T20:57:05.732Z,99970.13
2022-12-17T20:59:33.817Z,99962.16
2022-12-17T21:02:01.979Z,99969.91
2022-12-17T21:04:31.792Z,99967.41
2022-12-17T21:07:00.102Z,99991.75
2022-12-17T21:09:29.404Z,99997.88
2022-12-17T21:11:57.608Z,100000.22
2022-12-17T21:14:29.175Z,99993.53
2022-12-17T21:17:00.345Z,99989.88
2022-12-17T21:19:28.525Z,99993.19
2022-12-17T21:21:58.255Z,100010.28
2022-12-17T21:24:26.393Z,100002.69
2022-12-17T21:26:57.442Z,100015.44
2022-12-17T21:29:25.967Z,100015.03
2022-12-17T21:31:54.210Z,100006.84
2022-12-17T21:34:25.239Z,100010.56
2022-12-17T21:36:53.778Z,100013.25
2022-12-17T21:39:23.227Z,100005.03
2022-12-17T21:42:05.170Z,100021.31
2022-12-17T21:44:33.365Z,100026.13
2022-12-17T21:47:02.241Z,100025.53
2022-12-17T21:49:30.664Z,100019.03
2022-12-17T21:52:00.476Z,100009.19
2022-12-17T21:54:30.577Z,100013.31
2022-12-17T21:56:58.630Z,100004.41
2022-12-17T21:59:26.708Z,100006.13
2022-12-17T22:01:57.447Z,100003.25
2022-12-17T22:04:26.840Z,100011.03
2022-12-17T22:07:05.582Z,100012.63
2022-12-17T22:09:52.839Z,100007.50
2022-12-17T22:12:48.764Z,100001.91
2022-12-17T22:15:17.020Z,99994.31
2022-12-17T22:17:47.162Z,100000.53
2022-12-17T22:20:16.294Z,100009.91
2022-12-17T22:22:45.512Z,100021.19
2022-12-17T22:25:15.275Z,100031.34
2022-12-17T22:27:43.994Z,100033.03
2022-12-17T22:30:33.662Z,100029.69
2022-12-17T22:33:09.410Z,100028.16
2022-12-17T22:37:37.663Z,100031.00
2022-12-17T22:44:12.735Z,100041.50
2022-12-17T22:44:36.241Z,100042.31
2022-12-17T22:44:51.257Z,100042.56
2022-12-17T22:47:20.954Z,100042.38
2022-12-17T22:49:48.971Z,100045.41
2022-12-17T22:52:19.788Z,100054.91
2022-12-17T22:54:48.552Z,100065.75
2022-12-17T22:57:37.661Z,100073.00
2022-12-17T23:00:15.978Z,100070.09
2022-12-17T23:02:44.288Z,100065.22
2022-12-17T23:05:12.408Z,100064.88
2022-12-17T23:07:40.624Z,100066.00
2022-12-17T23:10:09.319Z,100061.09
2022-12-17T23:12:54.405Z,100056.84
2022-12-17T23:15:26.649Z,100034.53
2022-12-17T23:17:56.942Z,100031.63
2022-12-17T23:20:26.115Z,100036.09
2022-12-17T23:22:54.342Z,100070.63
2022-12-17T23:25:22.600Z,100080.53
2022-12-17T23:27:52.414Z,100075.13
2022-12-17T23:30:20.971Z,100077.75
2022-12-17T23:32:49.165Z,100087.59
2022-12-17T23:35:17.240Z,100089.34
2022-12-17T23:37:45.259Z,100097.69
2022-12-17T23:40:14.555Z,100095.97
2022-12-17T23:42:43.117Z,100091.88
2022-12-17T23:45:12.599Z,100094.28
2022-12-17T23:47:41.142Z,100101.75
2022-12-17T23:50:11.566Z,100106.91
2022-12-17T23:52:40.568Z,100115.81
2022-12-17T23:55:09.152Z,100120.75
2022-12-17T23:57:37.203Z,100121.09
